Time;durP1;ratioP1;P1;durP2;ratioP2;P2;SDS_P1;SDS_P2;PMS_P1;PMS_P2;Temp;Humidity;BMP_temperature;BMP_pressure;BME280_temperature;BME280_humidity;BME280_pressure;Samples;Min_cycle;Max_cycle;Signal;HPM_P1;HPM_P2
2022/05/22 00:02:06;;;;;;;;;4.00;4.00;;;;;22.06;48.59;101447.94;5074648;28;45484;-85
2022/05/22 00:04:32;;;;;;;;;4.00;4.00;;;;;21.98;48.37;101442.25;5069007;28;45542;-85
2022/05/22 00:06:57;;;;;;;;;6.00;3.00;;;;;22.01;48.41;101454.69;5060077;28;45796;-84
2022/05/22 00:09:23;;;;;;;;;5.00;5.00;;;;;22.00;48.11;101450.28;5064800;28;45476;-84
2022/05/22 00:11:49;;;;;;;;;2.00;2.00;;;;;21.90;47.69;101450.16;5072072;28;45392;-84
2022/05/22 00:14:15;;;;;;;;;2.67;2.67;;;;;21.93;47.71;101456.19;5076986;28;45428;-84
2022/05/22 00:16:46;;;;;;;;;3.00;3.00;;;;;21.91;48.15;101449.16;5072023;28;45327;-84
2022/05/22 00:19:21;;;;;;;;;3.00;3.00;;;;;21.88;48.07;101447.56;5072897;28;46440;-84
2022/05/22 00:21:48;;;;;;;;;4.00;1.67;;;;;21.88;48.66;101449.41;5076943;27;45738;-84
2022/05/22 00:24:15;;;;;;;;;2.33;2.33;;;;;21.79;48.65;101442.88;5076692;27;45452;-84
2022/05/22 00:26:40;;;;;;;;;2.33;2.33;;;;;21.79;49.09;101444.72;5079511;27;45376;-84
2022/05/22 00:29:06;;;;;;;;;3.00;3.00;;;;;21.81;48.75;101445.47;5080743;27;45456;-84
2022/05/22 00:31:32;;;;;;;;;4.00;4.00;;;;;21.68;48.99;101432.00;5074944;27;45261;-84
2022/05/22 00:33:58;;;;;;;;;2.00;2.00;;;;;21.79;49.09;101447.44;5068664;28;45281;-84
2022/05/22 00:36:23;;;;;;;;;3.67;3.67;;;;;21.71;49.38;101434.50;5071983;28;45292;-84
2022/05/22 00:38:52;;;;;;;;;2.33;2.33;;;;;21.59;48.83;101425.47;5072085;27;45480;-84
2022/05/22 00:41:18;;;;;;;;;4.33;3.00;;;;;21.75;48.44;101445.94;5064946;27;45432;-84
2022/05/22 00:43:48;;;;;;;;;3.33;3.33;;;;;21.74;48.97;101442.38;5066410;28;45457;-84
2022/05/22 00:46:16;;;;;;;;;3.33;3.33;;;;;21.65;48.60;101426.81;5070472;28;45304;-84
2022/05/22 00:48:44;;;;;;;;;2.00;1.67;;;;;21.70;49.09;101427.31;5079040;28;45503;-84
2022/05/22 00:51:35;;;;;;;;;2.67;1.33;;;;;21.68;49.13;101416.59;5070550;28;45361;-84
2022/05/22 00:54:06;;;;;;;;;3.00;3.00;;;;;21.69;48.67;101415.59;5076889;28;45305;-84
2022/05/22 00:56:39;;;;;;;;;4.00;3.00;;;;;21.64;48.67;101403.41;5063631;27;45468;-85
2022/05/22 00:59:11;;;;;;;;;2.00;2.00;;;;;21.54;49.06;101384.28;5079434;27;46089;-84
2022/05/22 01:01:37;;;;;;;;;2.33;2.33;;;;;21.49;48.93;101375.63;5073409;27;45855;-83
2022/05/22 01:04:08;;;;;;;;;4.00;3.00;;;;;21.63;48.68;101405.25;5076460;28;45450;-84
2022/05/22 01:06:34;;;;;;;;;3.00;3.00;;;;;21.57;48.59;101381.31;5063427;28;45401;-84
2022/05/22 01:08:59;;;;;;;;;5.33;4.00;;;;;21.47;49.38;101364.94;5071556;28;46069;-84
2022/05/22 01:11:33;;;;;;;;;4.00;4.00;;;;;21.56;49.34;101379.59;5067959;28;45457;-84
2022/05/22 01:14:05;;;;;;;;;3.00;3.00;;;;;21.45;49.39;101366.91;5079394;27;45511;-84
2022/05/22 01:16:32;;;;;;;;;4.67;4.67;;;;;21.45;50.06;101372.31;5076170;27;45621;-84
2022/05/22 01:18:57;;;;;;;;;4.67;4.67;;;;;21.44;49.52;101378.72;5070265;28;46270;-84
2022/05/22 01:21:26;;;;;;;;;4.00;4.00;;;;;21.43;49.85;101378.84;5069000;28;45488;-84
2022/05/22 01:23:52;;;;;;;;;5.33;4.00;;;;;21.35;50.16;101368.56;5079146;27;46039;-84
2022/05/22 01:26:18;;;;;;;;;9.00;7.00;;;;;21.45;49.67;101376.88;5064586;27;45463;-84
2022/05/22 01:28:44;;;;;;;;;3.00;3.00;;;;;21.45;49.65;101380.47;5073737;28;45569;-83
2022/05/22 01:31:10;;;;;;;;;8.67;5.33;;;;;21.44;49.90;101372.44;5077626;28;45500;-83
2022/05/22 01:33:37;;;;;;;;;7.00;7.00;;;;;21.25;49.87;101344.03;5073600;27;45439;-85
2022/05/22 01:36:05;;;;;;;;;5.67;5.67;;;;;21.27;49.44;101352.06;5075083;28;45258;-84
2022/05/22 01:38:31;;;;;;;;;3.67;3.33;;;;;21.26;49.22;101359.34;5063296;27;45442;-84
2022/05/22 01:40:57;;;;;;;;;6.67;6.67;;;;;21.32;49.91;101368.81;5059708;28;45295;-84
2022/05/22 01:43:23;;;;;;;;;4.33;3.00;;;;;21.28;49.45;101362.78;5074690;28;45403;-83
2022/05/22 01:45:48;;;;;;;;;4.33;4.33;;;;;21.26;49.56;101366.59;5068937;28;45497;-83
2022/05/22 01:48:14;;;;;;;;;6.67;3.67;;;;;21.23;50.53;101359.56;5072672;27;45724;-83
2022/05/22 01:50:41;;;;;;;;;3.33;1.67;;;;;21.05;50.12;101329.34;5076024;28;45428;-84
2022/05/22 01:53:07;;;;;;;;;4.00;4.00;;;;;21.20;50.01;101353.53;5065377;28;45470;-84
2022/05/22 01:55:32;;;;;;;;;3.33;3.33;;;;;21.20;50.43;101358.94;5069655;27;45495;-84
2022/05/22 01:57:58;;;;;;;;;2.33;2.00;;;;;21.06;50.05;101343.75;5065859;27;45913;-84
2022/05/22 02:00:25;;;;;;;;;4.33;3.00;;;;;21.13;50.44;101352.28;5069428;28;45530;-84
2022/05/22 02:02:54;;;;;;;;;4.00;4.00;;;;;21.02;49.92;101334.13;5064503;28;45405;-84
2022/05/22 02:05:20;;;;;;;;;3.00;2.33;;;;;21.03;49.53;101322.31;5067977;28;45561;-84
2022/05/22 02:10:31;;;;;;;;;4.00;4.00;;;;;21.16;50.17;101354.75;5066143;28;45317;-84
2022/05/22 02:12:57;;;;;;;;;5.00;5.00;;;;;20.98;50.12;101338.94;5073677;28;45486;-83
2022/05/22 02:15:22;;;;;;;;;4.67;4.67;;;;;21.10;50.34;101366.94;5071298;28;46013;-83
2022/05/22 02:17:48;;;;;;;;;2.33;2.00;;;;;21.09;50.16;101359.78;5069314;28;45401;-84
2022/05/22 02:20:14;;;;;;;;;4.00;4.00;;;;;20.95;49.82;101350.00;5060066;28;45463;-84
2022/05/22 02:22:41;;;;;;;;;12.67;12.67;;;;;20.93;50.22;101357.44;5071251;28;45879;-84
2022/05/22 02:25:07;;;;;;;;;6.67;4.67;;;;;20.85;50.49;101346.31;5070940;27;45345;-84
2022/05/22 02:27:32;;;;;;;;;2.33;2.33;;;;;20.93;50.69;101360.13;5071845;27;45837;-84
2022/05/22 02:29:59;;;;;;;;;4.67;4.67;;;;;20.82;50.74;101352.81;5064579;28;45371;-84
2022/05/22 02:32:25;;;;;;;;;3.33;3.00;;;;;20.82;50.81;101363.66;5064820;28;46558;-84
2022/05/22 02:34:50;;;;;;;;;3.00;3.00;;;;;20.65;50.96;101335.16;5069842;28;45582;-84
2022/05/22 02:37:15;;;;;;;;;5.00;5.00;;;;;20.77;50.96;101362.31;5078041;27;46398;-84
2022/05/22 02:39:41;;;;;;;;;3.00;3.00;;;;;20.67;50.74;101343.16;5065018;28;45289;-84
2022/05/22 02:42:06;;;;;;;;;3.33;3.00;;;;;20.75;50.98;101367.81;5060617;28;45444;-84
2022/05/22 02:44:32;;;;;;;;;4.00;4.00;;;;;20.65;51.17;101364.09;5078781;28;45554;-84
2022/05/22 02:46:58;;;;;;;;;4.00;4.00;;;;;20.73;50.69;101387.91;5061791;27;45459;-84
2022/05/22 02:49:23;;;;;;;;;5.33;3.67;;;;;20.60;50.95;101371.69;5071448;28;45499;-84
2022/05/22 02:51:48;;;;;;;;;5.33;4.33;;;;;20.58;51.16;101379.06;5072660;27;45756;-84
2022/05/22 02:54:14;;;;;;;;;4.00;4.00;;;;;20.58;51.08;101379.06;5073142;28;45570;-84
2022/05/22 02:56:40;;;;;;;;;4.33;3.67;;;;;20.48;51.14;101364.47;5064994;27;45569;-84
2022/05/22 02:59:06;;;;;;;;;6.00;5.00;;;;;20.55;51.22;101377.44;5067944;28;45416;-84
2022/05/22 03:01:31;;;;;;;;;5.00;5.00;;;;;20.54;51.31;101381.13;5072361;28;45492;-84
2022/05/22 03:03:56;;;;;;;;;7.00;6.00;;;;;20.51;51.49;101377.78;5067920;27;45308;-84
2022/05/22 03:06:40;;;;;;;;;3.33;3.00;;;;;20.41;51.65;101364.91;5069286;28;50227;-84
2022/05/22 03:09:12;;;;;;;;;4.67;4.67;;;;;20.47;51.71;101374.44;5067755;28;45305;-83
2022/05/22 03:11:39;;;;;;;;;8.00;6.00;;;;;20.33;51.76;101356.53;5070238;28;45563;-83
2022/05/22 03:14:05;;;;;;;;;7.33;4.33;;;;;20.44;51.76;101372.84;5068966;28;45364;-84
2022/05/22 03:16:30;;;;;;;;;5.67;5.00;;;;;20.31;51.75;101347.66;5073160;28;46109;-84
2022/05/22 03:18:56;;;;;;;;;10.67;8.00;;;;;20.41;52.25;101364.06;5067879;27;45630;-83
2022/05/22 03:21:21;;;;;;;;;8.00;7.00;;;;;20.27;52.02;101335.31;5071343;28;46420;-84
2022/05/22 03:23:46;;;;;;;;;6.33;6.33;;;;;20.27;51.61;101332.63;5070722;27;45566;-83
2022/05/22 03:26:12;;;;;;;;;6.00;5.00;;;;;20.28;52.16;101325.38;5061009;28;45546;-84
2022/05/22 03:28:37;;;;;;;;;6.67;5.33;;;;;20.22;51.86;101311.31;5076494;28;45488;-84
2022/05/22 03:31:03;;;;;;;;;6.00;6.00;;;;;20.39;52.09;101328.13;5075542;28;45514;-84
2022/05/22 03:33:28;;;;;;;;;5.00;5.00;;;;;20.29;52.01;101303.59;5073928;28;45383;-84
2022/05/22 03:35:53;;;;;;;;;6.00;3.00;;;;;20.30;51.92;101307.16;5068732;27;45856;-84
2022/05/22 03:38:19;;;;;;;;;6.00;6.00;;;;;20.48;51.36;101326.56;5069384;28;45372;-84
2022/05/22 03:40:47;;;;;;;;;6.00;6.00;;;;;20.47;52.00;101324.84;5066811;27;46151;-85
2022/05/22 03:43:17;;;;;;;;;5.33;4.67;;;;;20.47;51.34;101319.44;5074646;28;45336;-84
2022/05/22 03:45:43;;;;;;;;;4.67;4.00;;;;;20.46;51.65;101321.25;5066229;27;45356;-84
2022/05/22 03:48:09;;;;;;;;;3.67;3.00;;;;;20.46;51.59;101329.38;5065292;28;45360;-84
2022/05/22 03:50:34;;;;;;;;;3.33;3.33;;;;;20.37;51.38;101313.81;5072055;27;45490;-84
2022/05/22 03:53:00;;;;;;;;;6.00;5.33;;;;;20.31;51.63;101308.91;5075837;27;45301;-84
2022/05/22 03:55:25;;;;;;;;;5.00;4.00;;;;;20.46;51.21;101334.78;5065672;28;46264;-84
2022/05/22 03:57:51;;;;;;;;;4.67;4.00;;;;;20.27;51.59;101294.72;5064698;28;45347;-84
2022/05/22 04:00:19;;;;;;;;;6.67;4.67;;;;;20.33;51.04;101305.09;5074688;27;45463;-79
2022/05/22 04:02:45;;;;;;;;;6.00;4.00;;;;;20.28;51.13;101296.47;5077449;27;45562;-79
2022/05/22 04:05:11;;;;;;;;;2.67;2.00;;;;;20.35;51.84;101313.09;5074279;27;46258;-79
2022/05/22 04:07:41;;;;;;;;;5.00;4.00;;;;;20.22;51.30;101289.66;5071798;27;45419;-79
2022/05/22 04:10:08;;;;;;;;;4.67;4.00;;;;;20.37;51.57;101303.88;5065661;28;45566;-79
2022/05/22 04:12:35;;;;;;;;;4.00;3.00;;;;;20.38;51.63;101299.31;5074456;27;45372;-79
2022/05/22 04:15:01;;;;;;;;;3.33;2.33;;;;;20.27;51.86;101275.75;5069926;28;45463;-79
2022/05/22 04:17:26;;;;;;;;;5.00;5.00;;;;;20.39;52.27;101299.22;5067029;28;45479;-79
2022/05/22 04:19:52;;;;;;;;;4.00;3.00;;;;;20.39;52.16;101303.75;5076116;28;45693;-79
2022/05/22 04:22:17;;;;;;;;;3.00;3.00;;;;;20.37;52.36;101294.88;5073980;28;45564;-78
2022/05/22 04:27:28;;;;;;;;;4.00;4.00;;;;;20.45;51.34;101306.00;5071406;28;45426;-79
2022/05/22 04:29:53;;;;;;;;;7.00;6.00;;;;;20.41;51.13;101296.38;5062176;28;45528;-78
2022/05/22 04:32:19;;;;;;;;;4.67;4.00;;;;;20.19;51.93;101254.69;5071801;28;45580;-79
2022/05/22 04:34:45;;;;;;;;;4.00;3.00;;;;;20.46;51.38;101299.59;5075942;27;46471;-79
2022/05/22 04:37:10;;;;;;;;;3.67;3.67;;;;;20.35;51.49;101286.03;5073559;28;45457;-79
2022/05/22 04:39:36;;;;;;;;;4.67;4.00;;;;;20.45;51.65;101301.44;5076257;28;45718;-79
2022/05/22 04:42:01;;;;;;;;;4.33;3.00;;;;;20.43;52.07;101295.28;5076553;27;45415;-79
2022/05/22 04:44:26;;;;;;;;;5.00;5.00;;;;;20.47;51.96;101309.47;5075602;28;46215;-79
2022/05/22 04:46:52;;;;;;;;;5.00;4.00;;;;;20.41;51.30;101297.22;5076769;27;45378;-79
2022/05/22 04:49:17;;;;;;;;;4.33;4.33;;;;;20.25;51.23;101272.31;5067632;28;45918;-79
2022/05/22 04:51:42;;;;;;;;;5.33;4.00;;;;;20.48;51.36;101313.03;5064342;27;45470;-79
2022/05/22 04:54:08;;;;;;;;;4.33;4.33;;;;;20.38;51.21;101299.31;5068663;28;46661;-79
2022/05/22 04:56:33;;;;;;;;;8.33;6.33;;;;;20.26;51.50;101284.03;5073498;28;45461;-79
2022/05/22 04:58:59;;;;;;;;;9.67;5.33;;;;;20.46;51.24;101326.66;5063016;28;45417;-79
2022/05/22 05:01:24;;;;;;;;;7.33;6.00;;;;;20.33;51.37;101309.66;5071615;27;45544;-79
2022/05/22 05:03:49;;;;;;;;;4.00;4.00;;;;;20.43;51.30;101327.75;5070737;27;45354;-79
2022/05/22 05:06:15;;;;;;;;;7.00;6.00;;;;;20.37;51.79;101319.25;5069072;28;45485;-79
2022/05/22 05:08:41;;;;;;;;;5.00;5.00;;;;;20.28;51.37;101307.28;5069486;28;45491;-79
2022/05/22 05:11:10;;;;;;;;;4.00;4.00;;;;;20.29;51.65;101295.47;5067646;28;45773;-79
2022/05/22 05:13:37;;;;;;;;;4.00;4.00;;;;;20.47;52.08;101325.69;5073944;27;46148;-79
2022/05/22 05:16:05;;;;;;;;;7.00;6.00;;;;;20.48;51.71;101318.44;5071226;28;45307;-79
2022/05/22 05:18:31;;;;;;;;;6.67;4.67;;;;;20.33;51.43;101294.25;5070273;27;45419;-79
2022/05/22 05:21:02;;;;;;;;;4.00;4.00;;;;;20.53;51.07;101322.50;5066852;28;45690;-79
2022/05/22 05:23:28;;;;;;;;;5.00;4.00;;;;;20.43;51.88;101297.13;5075559;28;45558;-79
2022/05/22 05:25:53;;;;;;;;;6.00;4.33;;;;;20.43;51.35;101297.97;5071041;27;45441;-79
2022/05/22 05:28:19;;;;;;;;;5.00;4.00;;;;;20.58;51.18;101323.06;5072364;28;45524;-79
2022/05/22 05:30:44;;;;;;;;;4.33;4.33;;;;;20.60;51.47;101323.81;5069819;28;45377;-79
2022/05/22 05:33:09;;;;;;;;;5.00;4.67;;;;;20.62;51.52;101320.97;5073811;28;45617;-79
2022/05/22 05:35:36;;;;;;;;;5.00;5.00;;;;;20.57;50.96;101320.47;5066040;28;45539;-79
2022/05/22 05:38:02;;;;;;;;;5.00;5.00;;;;;20.49;51.67;101310.22;5069096;28;45515;-78
2022/05/22 05:40:27;;;;;;;;;6.00;6.00;;;;;20.65;51.37;101334.31;5073497;27;45746;-79
2022/05/22 05:42:52;;;;;;;;;6.00;5.67;;;;;20.49;51.10;101306.66;5070558;28;45519;-79
2022/05/22 05:45:18;;;;;;;;;6.00;6.00;;;;;20.64;51.41;101327.16;5070693;27;45731;-79
2022/05/22 05:47:47;;;;;;;;;5.00;3.33;;;;;20.72;51.39;101340.09;5075262;28;45747;-80
2022/05/22 05:50:15;;;;;;;;;6.33;5.67;;;;;20.68;51.17;101331.34;5061640;28;45645;-80
2022/05/22 05:52:41;;;;;;;;;4.33;4.33;;;;;20.60;51.38;101301.28;5078034;27;45544;-79
2022/05/22 05:55:07;;;;;;;;;4.67;4.00;;;;;20.78;50.98;101320.66;5074047;27;45802;-79
2022/05/22 05:57:32;;;;;;;;;5.00;5.00;;;;;20.74;51.19;101298.34;5073728;27;45475;-80
2022/05/22 05:59:58;;;;;;;;;5.00;5.00;;;;;20.66;51.15;101276.44;5075543;28;45423;-80
2022/05/22 06:02:24;;;;;;;;;7.00;5.67;;;;;20.91;51.39;101305.19;5071925;28;46483;-80
2022/05/22 06:04:50;;;;;;;;;6.00;4.67;;;;;20.91;50.63;101301.59;5072596;27;45453;-79
2022/05/22 06:07:15;;;;;;;;;5.00;5.00;;;;;20.94;50.17;101290.53;5066890;27;45589;-80
2022/05/22 06:09:40;;;;;;;;;6.00;6.00;;;;;20.86;50.81;101273.03;5075867;27;45346;-79
2022/05/22 06:12:06;;;;;;;;;6.33;5.00;;;;;21.07;50.34;101297.56;5070853;28;45407;-79
2022/05/22 06:14:31;;;;;;;;;6.67;5.00;;;;;21.02;50.21;101282.63;5069026;27;45497;-78
2022/05/22 06:16:57;;;;;;;;;5.00;5.00;;;;;21.11;50.03;101289.19;5076766;28;45327;-78
2022/05/22 06:22:07;;;;;;;;;4.67;4.67;;;;;21.19;50.06;101275.88;5069574;27;45774;-77
2022/05/22 06:24:35;;;;;;;;;5.00;5.00;;;;;21.20;49.96;101273.03;5067689;27;45503;-78
2022/05/22 06:27:02;;;;;;;;;5.00;5.00;;;;;21.24;50.12;101271.81;5085933;27;45671;-79
2022/05/22 06:29:28;;;;;;;;;7.00;6.00;;;;;21.31;50.04;101266.78;5065055;27;46449;-78
2022/05/22 06:31:53;;;;;;;;;6.67;4.00;;;;;21.33;49.68;101256.66;5068169;28;45523;-78
2022/05/22 06:34:18;;;;;;;;;6.00;5.00;;;;;21.43;49.90;101257.66;5069240;27;45485;-78
2022/05/22 06:36:44;;;;;;;;;7.00;6.00;;;;;21.50;49.21;101244.47;5074060;28;45618;-76
2022/05/22 06:41:53;;;;;;;;;6.33;4.67;;;;;21.60;49.17;101226.44;5058876;28;45620;-76
2022/05/22 06:44:19;;;;;;;;;5.33;5.33;;;;;21.60;48.79;101206.59;5068953;27;45592;-77
2022/05/22 06:46:44;;;;;;;;;6.00;6.00;;;;;21.69;48.90;101206.69;5070243;28;45597;-77
2022/05/22 06:49:10;;;;;;;;;47.33;37.67;;;;;21.74;48.69;101202.72;5075722;27;45661;-77
2022/05/22 06:51:36;;;;;;;;;11.33;11.00;;;;;21.89;48.67;101215.88;5072690;27;45519;-76
2022/05/22 06:54:01;;;;;;;;;7.00;7.00;;;;;21.89;48.12;101206.84;5067647;28;45514;-77
2022/05/22 06:56:26;;;;;;;;;5.00;5.00;;;;;21.92;48.11;101212.91;5068715;28;45482;-78
2022/05/22 06:58:52;;;;;;;;;5.67;5.00;;;;;22.05;47.88;101214.56;5068791;28;45202;-76
2022/05/22 07:01:17;;;;;;;;;2.67;2.67;;;;;21.96;47.51;101185.50;5071207;28;47502;-76
2022/05/22 07:03:42;;;;;;;;;6.00;5.00;;;;;22.11;47.05;101198.63;5072137;28;45432;-76
2022/05/22 07:06:08;;;;;;;;;8.00;8.00;;;;;22.20;47.46;101204.28;5072911;27;45431;-77
2022/05/22 07:08:33;;;;;;;;;8.00;5.00;;;;;22.19;47.56;101211.53;5074162;28;45368;-77
2022/05/22 07:13:42;;;;;;;;;6.00;4.00;;;;;22.27;46.89;101202.78;5071814;28;45450;-78
2022/05/22 07:16:08;;;;;;;;;5.33;5.00;;;;;22.34;46.85;101215.69;5061911;28;45421;-78
2022/05/22 07:18:33;;;;;;;;;4.00;4.00;;;;;22.44;47.16;101220.34;5069027;28;45498;-78
2022/05/22 07:20:59;;;;;;;;;4.00;4.00;;;;;22.42;46.90;101220.47;5068210;28;56258;-77
2022/05/22 07:23:24;;;;;;;;;4.00;4.00;;;;;22.41;46.73;101221.47;5069150;27;45601;-78
2022/05/22 07:25:52;;;;;;;;;2.00;2.00;;;;;22.20;46.80;101158.97;5067683;27;45443;-78
2022/05/22 07:28:18;;;;;;;;;3.00;3.00;;;;;22.23;46.69;101172.31;5062842;27;45654;-78
2022/05/22 07:30:43;;;;;;;;;4.00;4.00;;;;;22.07;46.48;101199.03;5066187;28;46264;-75
2022/05/22 07:33:09;;;;;;;;;5.00;3.33;;;;;22.24;46.50;101249.19;5070328;27;45741;-76
2022/05/22 07:35:35;;;;;;;;;5.67;4.00;;;;;22.14;46.94;101203.78;5061546;28;45518;-77
2022/05/22 07:38:01;;;;;;;;;4.33;4.33;;;;;22.23;46.50;101223.06;5071197;28;45474;-76
2022/05/22 07:40:28;;;;;;;;;3.33;3.33;;;;;22.20;46.16;101201.56;5070492;27;45736;-76
2022/05/22 07:42:54;;;;;;;;;5.67;3.67;;;;;22.23;46.71;101204.03;5072363;27;45490;-76
2022/05/22 07:45:19;;;;;;;;;4.67;3.67;;;;;22.37;45.95;101221.88;5070359;28;45429;-78
2022/05/22 07:47:44;;;;;;;;;3.00;2.33;;;;;22.42;46.46;101209.59;5068508;28;45516;-76
2022/05/22 07:50:22;;;;;;;;;3.00;3.00;;;;;22.49;46.49;101194.50;5062042;28;48272;-76
2022/05/22 07:52:49;;;;;;;;;5.00;3.00;;;;;22.68;45.70;101204.59;5065373;28;46602;-75
2022/05/22 07:55:18;;;;;;;;;3.00;3.00;;;;;22.77;45.45;101186.63;5066202;28;45456;-75
2022/05/22 07:57:45;;;;;;;;;4.67;4.67;;;;;22.81;45.24;101179.09;5064324;28;45602;-81
2022/05/22 08:00:14;;;;;;;;;3.00;3.00;;;;;22.91;45.59;101189.00;5059152;28;46373;-80
2022/05/22 08:02:40;;;;;;;;;5.00;4.00;;;;;22.94;45.53;101180.59;5064463;28;45758;-74
2022/05/22 08:05:07;;;;;;;;;2.67;2.67;;;;;22.85;44.67;101146.06;5069336;27;45561;-76
2022/05/22 08:07:33;;;;;;;;;4.00;3.33;;;;;23.02;45.29;101143.72;5063700;28;45637;-74
2022/05/22 08:09:59;;;;;;;;;2.67;2.67;;;;;23.13;44.13;101138.16;5071735;28;47377;-75
2022/05/22 08:12:25;;;;;;;;;3.33;3.33;;;;;23.24;44.97;101142.63;5062748;28;45824;-75
2022/05/22 08:14:51;;;;;;;;;4.00;4.00;;;;;23.36;45.35;101142.34;5069288;27;45506;-75
2022/05/22 08:17:19;;;;;;;;;3.67;3.33;;;;;23.53;45.89;101143.56;5063409;28;45593;-75
2022/05/22 08:19:45;;;;;;;;;3.67;3.67;;;;;23.66;45.50;101129.66;5072163;28;46163;-74
2022/05/22 08:22:10;;;;;;;;;5.67;3.67;;;;;23.85;44.20;101120.66;5070328;28;45372;-74
2022/05/22 08:24:35;;;;;;;;;5.33;3.67;;;;;23.96;43.59;101092.44;5060336;28;45450;-76
2022/05/22 08:27:01;;;;;;;;;2.67;2.00;;;;;24.12;43.25;101091.81;5057175;28;45494;-75
2022/05/22 08:29:26;;;;;;;;;4.33;4.33;;;;;24.39;43.27;101110.94;5064519;28;47186;-76
2022/05/22 08:31:51;;;;;;;;;2.67;2.67;;;;;24.47;42.77;101098.47;5069023;28;45554;-76
2022/05/22 08:34:17;;;;;;;;;4.33;2.67;;;;;24.52;44.16;101104.38;5073670;28;45471;-74
2022/05/22 08:36:42;;;;;;;;;4.33;4.00;;;;;24.63;43.11;101115.94;5066173;27;45507;-74
2022/05/22 08:39:08;;;;;;;;;3.33;3.00;;;;;24.67;41.90;101121.06;5068559;27;46190;-74
2022/05/22 08:42:06;;;;;;;;;3.00;3.00;;;;;24.70;41.27;101124.38;5064262;27;45538;-75
2022/05/22 08:44:32;;;;;;;;;3.00;1.33;;;;;24.72;39.71;101124.22;5067800;28;45466;-74
2022/05/22 08:47:10;;;;;;;;;4.00;2.67;;;;;24.73;40.29;101126.78;5062826;27;45454;-74
2022/05/22 08:49:39;;;;;;;;;3.00;3.00;;;;;24.75;40.14;101130.22;5078783;27;46105;-75
2022/05/22 08:52:17;;;;;;;;;3.33;3.00;;;;;24.68;39.56;101122.78;5059350;28;45762;-75
2022/05/22 08:54:48;;;;;;;;;3.33;3.00;;;;;24.46;39.73;101088.56;5060512;28;45467;-79
2022/05/22 09:00:09;;;;;;;;;4.00;2.67;;;;;24.67;41.20;101082.91;5073157;28;45692;-85
2022/05/22 09:02:45;;;;;;;;;2.00;2.00;;;;;24.84;40.56;101095.72;5079985;28;45281;-82
2022/05/22 09:05:15;;;;;;;;;3.33;3.33;;;;;25.04;40.91;101110.13;5078646;28;45401;-81
2022/05/22 09:07:49;;;;;;;;;5.33;2.00;;;;;25.19;39.98;101102.31;5074293;28;45497;-81
2022/05/22 09:10:55;;;;;;;;;1.00;1.00;;;;;25.42;39.75;101100.84;5075535;28;45624;-80
2022/05/22 09:13:31;;;;;;;;;2.67;2.67;;;;;25.68;38.41;101097.34;4995565;28;45435;-79
2022/05/22 09:16:03;;;;;;;;;3.33;3.00;;;;;25.88;38.84;101085.25;5017067;28;45539;-84
2022/05/22 09:18:35;;;;;;;;;3.33;3.33;;;;;25.96;39.86;101092.66;5016837;28;45414;-82
2022/05/22 09:21:31;;;;;;;;;2.00;2.00;;;;;26.02;38.65;101067.44;4989836;28;48126;-79
2022/05/22 09:24:23;;;;;;;;;3.67;2.00;;;;;26.25;38.72;101086.03;5013957;28;45489;-82
2022/05/22 09:27:08;;;;;;;;;2.00;2.00;;;;;26.25;38.16;101080.59;5012922;28;45544;-87
2022/05/22 09:29:59;;;;;;;;;2.00;2.00;;;;;26.37;37.70;101073.81;4999903;28;45697;-78
2022/05/22 09:32:51;;;;;;;;;4.33;2.00;;;;;26.64;37.03;101059.09;5016374;28;45578;-78
2022/05/22 09:35:29;;;;;;;;;4.00;2.00;;;;;26.68;37.23;101037.75;5013019;28;45433;-78
2022/05/22 09:38:24;;;;;;;;;3.00;2.00;;;;;26.80;37.24;101054.72;5003383;28;45780;-79
2022/05/22 09:40:57;;;;;;;;;2.00;2.00;;;;;26.64;37.39;101050.88;5012391;28;45542;-78
2022/05/22 09:43:37;;;;;;;;;3.00;2.67;;;;;26.33;36.07;101034.16;5015360;28;46058;-79
2022/05/22 09:46:12;;;;;;;;;2.00;2.00;;;;;26.33;35.51;101040.47;5012590;28;45507;-80
2022/05/22 09:48:58;;;;;;;;;2.33;2.33;;;;;26.12;34.58;101037.28;5025328;28;45737;-79
2022/05/22 09:51:58;;;;;;;;;2.00;2.00;;;;;25.73;35.14;101020.41;5069768;28;45727;-86
2022/05/22 09:54:48;;;;;;;;;1.67;1.67;;;;;25.53;35.34;101022.50;5064593;28;48371;-87
2022/05/22 09:57:32;;;;;;;;;1.00;1.00;;;;;25.27;35.84;101007.75;5067496;27;45313;-86
2022/05/22 10:00:03;;;;;;;;;4.00;1.00;;;;;25.26;36.72;101002.44;5070809;28;45511;-85
2022/05/22 10:02:42;;;;;;;;;2.00;2.00;;;;;25.20;35.12;101001.22;5067692;28;45529;-83
2022/05/22 10:05:07;;;;;;;;;20.67;14.33;;;;;25.20;37.72;101005.81;5069425;28;45538;-84
2022/05/22 10:08:17;;;;;;;;;11.67;10.67;;;;;25.12;37.99;100998.38;5068329;28;45473;-83
2022/05/22 10:11:04;;;;;;;;;15.00;10.00;;;;;25.08;37.87;100999.72;5057001;28;45936;-84
2022/05/22 10:13:59;;;;;;;;;11.00;8.00;;;;;24.95;38.44;100986.44;5062481;28;45472;-84
2022/05/22 10:16:45;;;;;;;;;10.33;9.33;;;;;24.93;37.90;100968.53;5071080;28;45601;-84
2022/05/22 10:19:13;;;;;;;;;7.00;7.00;;;;;24.81;37.54;100952.38;5062396;28;45623;-86
2022/05/22 10:21:57;;;;;;;;;8.67;5.67;;;;;24.79;38.11;100969.91;5065234;28;45401;-84
2022/05/22 10:24:28;;;;;;;;;9.67;6.33;;;;;24.93;38.35;100993.91;5071979;27;45395;-83
2022/05/22 10:27:03;;;;;;;;;11.00;9.67;;;;;24.79;37.59;100981.66;5073893;28;45502;-81
2022/05/22 10:29:50;;;;;;;;;9.00;8.00;;;;;24.58;38.01;100954.72;5061512;28;45478;-81
2022/05/22 10:32:55;;;;;;;;;8.00;6.00;;;;;24.53;37.42;100950.72;5058181;28;45360;-81
2022/05/22 10:35:46;;;;;;;;;6.00;6.00;;;;;24.37;38.22;100924.09;5000683;28;45461;-81
2022/05/22 10:38:23;;;;;;;;;7.00;5.33;;;;;24.31;37.90;100922.00;5013668;28;45608;-86
2022/05/22 10:43:38;;;;;;;;;6.00;6.00;;;;;24.36;37.85;100919.69;5009756;28;45451;-82
2022/05/22 10:46:04;;;;;;;;;4.00;2.67;;;;;24.22;38.28;100902.81;5013622;28;45590;-83
2022/05/22 10:48:32;;;;;;;;;4.67;4.67;;;;;24.26;39.31;100908.84;4997852;28;47248;-83
2022/05/22 10:51:02;;;;;;;;;4.33;4.00;;;;;24.21;38.61;100906.56;5014304;28;45638;-88
2022/05/22 10:53:39;;;;;;;;;9.33;7.00;;;;;24.22;39.19;100916.44;5013566;28;45742;-85
2022/05/22 10:56:12;;;;;;;;;8.00;7.00;;;;;24.06;38.54;100886.28;4998067;28;45419;-84
2022/05/22 10:58:39;;;;;;;;;5.00;5.00;;;;;24.18;38.79;100906.00;5013397;28;46255;-88
2022/05/22 11:01:16;;;;;;;;;3.33;3.00;;;;;23.88;38.97;100875.34;5016520;28;45532;-88
2022/05/22 11:03:44;;;;;;;;;6.00;4.67;;;;;23.97;39.86;100901.66;5013870;28;45609;-88
2022/05/22 11:06:22;;;;;;;;;4.33;3.33;;;;;23.95;40.12;100908.25;5013841;28;45624;-88
2022/05/22 11:08:53;;;;;;;;;3.00;3.00;;;;;23.91;39.74;100902.28;5028053;28;45740;-85
2022/05/22 11:11:23;;;;;;;;;7.33;4.67;;;;;23.92;40.12;100901.25;5063207;27;45484;-87
2022/05/22 11:13:51;;;;;;;;;5.00;5.00;;;;;23.79;39.40;100889.88;5073350;28;45377;-86
2022/05/22 11:16:19;;;;;;;;;2.33;2.00;;;;;23.28;40.20;100823.97;5067466;27;45611;-83
2022/05/22 11:18:46;;;;;;;;;4.33;4.00;;;;;23.72;40.39;100908.63;5072912;28;46990;-87
2022/05/22 11:21:14;;;;;;;;;5.00;3.00;;;;;23.69;40.39;100906.19;5072965;27;45331;-89
2022/05/22 11:23:54;;;;;;;;;5.67;5.67;;;;;23.72;40.22;100899.59;5071133;28;45391;-88
2022/05/22 11:26:42;;;;;;;;;7.00;4.67;;;;;23.76;40.33;100899.19;5071176;28;46467;-89
2022/05/22 11:29:17;;;;;;;;;5.67;5.67;;;;;23.75;42.00;100902.91;5065653;28;45632;-87
2022/05/22 11:32:16;;;;;;;;;4.00;4.00;;;;;23.72;42.70;100894.16;5069070;28;45795;-86
2022/05/22 11:34:42;;;;;;;;;4.00;4.00;;;;;23.70;42.31;100890.72;5070627;27;45495;-88
2022/05/22 11:37:19;;;;;;;;;5.67;5.67;;;;;23.70;42.63;100896.19;5060694;28;45750;-85
2022/05/22 11:40:05;;;;;;;;;4.33;4.33;;;;;23.68;42.44;100893.59;5064780;28;45294;-85
2022/05/22 11:42:33;;;;;;;;;10.33;8.67;;;;;23.81;42.71;100901.44;5069372;28;45605;-87
2022/05/22 11:45:32;;;;;;;;;7.00;7.00;;;;;23.89;41.81;100912.44;5069685;28;45185;-88
2022/05/22 11:48:06;;;;;;;;;7.00;5.67;;;;;23.93;41.58;100913.88;5057624;28;45503;-86
2022/05/22 11:50:59;;;;;;;;;4.33;3.67;;;;;23.92;43.47;100916.75;5070911;28;45525;-87
2022/05/22 11:53:30;;;;;;;;;5.00;5.00;;;;;24.03;42.59;100911.09;5064460;28;45459;-86
2022/05/22 11:55:58;;;;;;;;;6.00;6.00;;;;;23.97;43.11;100909.81;5065608;28;45443;-86